Time;durP1;ratioP1;P1;durP2;ratioP2;P2;SDS_P1;SDS_P2;PMS_P1;PMS_P2;Temp;Humidity;BMP_temperature;BMP_pressure;BME280_temperature;BME280_humidity;BME280_pressure;Samples;Min_cycle;Max_cycle;Signal;HPM_P1;HPM_P2
2023/05/12 00:03:58;;;;;;;;;;;19.30;70.50;;;;;;10398936;28;88241;-63
2023/05/12 00:09:00;;;;;;;;;;;19.40;70.30;;;;;;10415969;28;88599;-63
2023/05/12 00:14:02;;;;;;;;;;;19.40;70.40;;;;;;10416957;28;89122;-63
2023/05/12 00:19:04;;;;;;;;;;;19.30;70.20;;;;;;10396645;28;90128;-63
2023/05/12 00:24:06;;;;;;;;;;;19.30;70.20;;;;;;10399185;28;89036;-63
2023/05/12 00:29:08;;;;;;;;;;;19.30;70.20;;;;;;10415504;28;88945;-63
2023/05/12 00:34:09;;;;;;;;;;;19.30;70.20;;;;;;10397684;28;90065;-63
2023/05/12 00:39:11;;;;;;;;;;;19.30;70.20;;;;;;10416243;28;89800;-63
2023/05/12 00:44:12;;;;;;;;;;;19.30;70.10;;;;;;10415436;28;88944;-63
2023/05/12 00:49:14;;;;;;;;;;;19.30;70.10;;;;;;10396888;28;90043;-63
2023/05/12 00:54:16;;;;;;;;;;;19.30;70.10;;;;;;10418160;27;88765;-63
2023/05/12 00:59:17;;;;;;;;;;;19.20;70.20;;;;;;10421692;28;89067;-63
2023/05/12 01:04:19;;;;;;;;;;;19.20;70.20;;;;;;10403744;28;89202;-63
2023/05/12 01:09:21;;;;;;;;;;;19.20;70.20;;;;;;10420329;28;90798;-63
2023/05/12 01:14:22;;;;;;;;;;;19.20;70.20;;;;;;10421729;28;89033;-63
2023/05/12 01:19:40;;;;;;;;;;;19.20;70.10;;;;;;10420500;28;89208;-63
2023/05/12 01:24:45;;;;;;;;;;;19.20;70.10;;;;;;10403980;28;90158;-63
2023/05/12 01:29:46;;;;;;;;;;;19.20;70.00;;;;;;10421262;28;89643;-63
2023/05/12 01:34:49;;;;;;;;;;;19.20;70.20;;;;;;10420640;28;88968;-63
2023/05/12 01:39:51;;;;;;;;;;;19.20;70.00;;;;;;10419573;28;89474;-63
2023/05/12 01:44:53;;;;;;;;;;;19.20;70.00;;;;;;10421350;28;88233;-63
2023/05/12 01:49:54;;;;;;;;;;;19.20;70.00;;;;;;10419217;28;88603;-63
2023/05/12 01:54:56;;;;;;;;;;;19.20;69.90;;;;;;10402585;28;90019;-63
2023/05/12 01:59:58;;;;;;;;;;;19.20;69.90;;;;;;10419581;28;89452;-63
2023/05/12 02:05:00;;;;;;;;;;;19.20;69.90;;;;;;10419742;28;89703;-63
2023/05/12 02:10:02;;;;;;;;;;;19.20;69.90;;;;;;10419970;28;89916;-63
2023/05/12 02:15:04;;;;;;;;;;;19.20;69.80;;;;;;10401921;28;90046;-62
2023/05/12 02:20:06;;;;;;;;;;;19.20;69.80;;;;;;10419381;28;90345;-63
2023/05/12 02:25:08;;;;;;;;;;;19.30;69.80;;;;;;10418748;28;88908;-63
2023/05/12 02:30:09;;;;;;;;;;;19.20;69.80;;;;;;10418746;28;89004;-63
2023/05/12 02:35:11;;;;;;;;;;;19.20;69.70;;;;;;10420174;28;87615;-63
2023/05/12 02:40:13;;;;;;;;;;;19.20;69.70;;;;;;10419190;28;88936;-63
2023/05/12 02:45:14;;;;;;;;;;;19.20;69.70;;;;;;10418688;28;88843;-63
2023/05/12 02:50:16;;;;;;;;;;;19.20;69.70;;;;;;10417202;28;89041;-63
2023/05/12 02:55:18;;;;;;;;;;;19.20;69.70;;;;;;10418073;28;89019;-63
2023/05/12 03:00:19;;;;;;;;;;;19.20;69.70;;;;;;10418670;28;89907;-63
2023/05/12 03:05:21;;;;;;;;;;;19.20;69.70;;;;;;10417716;28;90020;-63
2023/05/12 03:10:23;;;;;;;;;;;19.20;69.70;;;;;;10418144;28;88768;-63
2023/05/12 03:15:25;;;;;;;;;;;19.20;69.70;;;;;;10417930;28;89055;-63
2023/05/12 03:20:27;;;;;;;;;;;19.10;69.70;;;;;;10414890;28;89977;-63
2023/05/12 03:25:28;;;;;;;;;;;19.10;69.60;;;;;;10418630;28;89466;-63
2023/05/12 03:30:31;;;;;;;;;;;19.10;69.70;;;;;;10417874;28;90106;-63
2023/05/12 03:35:33;;;;;;;;;;;19.10;69.70;;;;;;10416594;28;88782;-63
2023/05/12 03:40:35;;;;;;;;;;;19.10;69.70;;;;;;10397568;28;89785;-63
2023/05/12 05:03:55;;;;;;;;;;;19.00;69.80;;;;;;10445966;27;88620;-64
2023/05/12 05:08:56;;;;;;;;;;;19.00;70.10;;;;;;10463612;27;88673;-64
2023/05/12 05:13:58;;;;;;;;;;;19.00;70.10;;;;;;10464190;27;89867;-64
2023/05/12 05:19:00;;;;;;;;;;;19.00;70.40;;;;;;10464499;27;91821;-64
2023/05/12 05:24:06;;;;;;;;;;;19.00;70.40;;;;;;10464481;27;89985;-64
2023/05/12 05:29:09;;;;;;;;;;;19.10;70.50;;;;;;10463513;27;89109;-64
2023/05/12 05:34:11;;;;;;;;;;;19.10;70.40;;;;;;10463393;27;90038;-64
2023/05/12 05:39:13;;;;;;;;;;;19.10;70.40;;;;;;10460484;27;90747;-64
2023/05/12 05:44:14;;;;;;;;;;;19.10;70.50;;;;;;10461439;27;88570;-64
2023/05/12 05:49:16;;;;;;;;;;;19.10;70.40;;;;;;10459905;27;89979;-64
2023/05/12 05:54:17;;;;;;;;;;;19.10;70.30;;;;;;10461868;27;89990;-65
2023/05/12 05:59:19;;;;;;;;;;;19.20;70.40;;;;;;10460978;27;89851;-66
2023/05/12 06:04:21;;;;;;;;;;;19.20;72.50;;;;;;10460705;27;89508;-64
2023/05/12 06:09:23;;;;;;;;;;;19.30;72.50;;;;;;10462594;27;90030;-64
2023/05/12 06:14:24;;;;;;;;;;;19.30;72.20;;;;;;10445846;27;89988;-65
2023/05/12 06:19:26;;;;;;;;;;;19.30;72.20;;;;;;10419560;28;90151;-65
2023/05/12 06:24:27;;;;;;;;;;;19.40;71.90;;;;;;10418588;28;89036;-66
2023/05/12 06:29:29;;;;;;;;;;;19.30;71.60;;;;;;10417305;28;89767;-65
2023/05/12 06:34:31;;;;;;;;;;;19.30;71.60;;;;;;10419319;28;88919;-65
2023/05/12 06:39:33;;;;;;;;;;;19.30;71.60;;;;;;10419086;28;90140;-65
2023/05/12 06:44:34;;;;;;;;;;;19.20;71.60;;;;;;10417743;28;89028;-65
2023/05/12 06:49:37;;;;;;;;;;;19.20;71.60;;;;;;10418350;28;89473;-65
2023/05/12 06:54:39;;;;;;;;;;;19.20;71.60;;;;;;10400002;28;89592;-65
2023/05/12 06:59:41;;;;;;;;;;;19.20;71.60;;;;;;10417877;28;89132;-65
2023/05/12 07:04:42;;;;;;;;;;;19.10;71.50;;;;;;10418518;28;89292;-65
2023/05/12 07:09:44;;;;;;;;;;;19.10;71.50;;;;;;10416532;28;90086;-65
2023/05/12 07:14:46;;;;;;;;;;;19.10;71.50;;;;;;10417998;28;88949;-65
2023/05/12 07:19:48;;;;;;;;;;;19.10;71.50;;;;;;10416593;28;90546;-65
2023/05/12 07:24:49;;;;;;;;;;;19.10;71.60;;;;;;10399241;28;89668;-65
2023/05/12 07:29:51;;;;;;;;;;;19.10;71.70;;;;;;10417153;28;89413;-65
2023/05/12 07:34:53;;;;;;;;;;;19.10;71.60;;;;;;10400154;28;90550;-65
2023/05/12 07:39:54;;;;;;;;;;;19.10;71.60;;;;;;10414180;28;89162;-65
2023/05/12 07:44:56;;;;;;;;;;;19.10;71.50;;;;;;10416746;28;89522;-66
2023/05/12 07:49:58;;;;;;;;;;;19.10;71.60;;;;;;10397590;28;89348;-66
2023/05/12 07:54:59;;;;;;;;;;;19.10;72.50;;;;;;10416649;28;89010;-64
2023/05/12 08:00:01;;;;;;;;;;;19.10;71.50;;;;;;10397192;28;89180;-64
2023/05/12 08:05:03;;;;;;;;;;;19.10;71.50;;;;;;10420126;27;89530;-64
2023/05/12 08:10:05;;;;;;;;;;;19.10;71.50;;;;;;10422003;28;90075;-64
2023/05/12 08:15:07;;;;;;;;;;;19.10;71.50;;;;;;10423744;28;89857;-64
2023/05/12 08:20:09;;;;;;;;;;;19.20;71.60;;;;;;10405104;28;88791;-65
2023/05/12 08:25:11;;;;;;;;;;;19.20;71.60;;;;;;10422912;28;90346;-65
2023/05/12 08:30:14;;;;;;;;;;;19.20;71.60;;;;;;10423345;28;88987;-65
2023/05/12 08:35:16;;;;;;;;;;;19.20;71.60;;;;;;10422522;28;88755;-64
2023/05/12 08:40:22;;;;;;;;;;;19.20;71.60;;;;;;10419081;28;94904;-64
2023/05/12 08:45:23;;;;;;;;;;;19.20;71.50;;;;;;10418998;28;93476;-64
2023/05/12 08:50:25;;;;;;;;;;;19.20;71.50;;;;;;10418634;28;93426;-65
2023/05/12 08:55:27;;;;;;;;;;;19.20;71.50;;;;;;10417512;28;93469;-64
2023/05/12 09:00:35;;;;;;;;;;;19.20;71.60;;;;;;10415242;28;96652;-64
2023/05/12 09:05:37;;;;;;;;;;;19.20;71.50;;;;;;10417892;28;94422;-64
2023/05/12 09:10:39;;;;;;;;;;;19.20;71.50;;;;;;10399936;28;93136;-65
2023/05/12 09:15:41;;;;;;;;;;;19.30;71.50;;;;;;10417881;27;94414;-65
2023/05/12 09:20:43;;;;;;;;;;;19.30;71.50;;;;;;10416904;28;94409;-65
2023/05/12 09:25:48;;;;;;;;;;;19.30;71.40;;;;;;10417334;28;93436;-64
2023/05/12 09:30:49;;;;;;;;;;;19.30;71.40;;;;;;10416515;28;93800;-65
2023/05/12 09:35:52;;;;;;;;;;;19.30;71.40;;;;;;10398578;28;94090;-63
2023/05/12 09:40:53;;;;;;;;;;;19.30;71.40;;;;;;10449531;27;93364;-64
2023/05/12 09:45:55;;;;;;;;;;;19.30;71.40;;;;;;10458106;27;94426;-65
2023/05/12 09:50:57;;;;;;;;;;;19.40;71.40;;;;;;10455143;27;96907;-64
2023/05/12 09:55:59;;;;;;;;;;;19.40;71.40;;;;;;10457236;27;94446;-64
2023/05/12 10:01:01;;;;;;;;;;;19.40;71.30;;;;;;10456783;27;94075;-64
2023/05/12 10:06:08;;;;;;;;;;;19.40;71.30;;;;;;10457281;27;93397;-64
2023/05/12 10:11:09;;;;;;;;;;;19.50;71.30;;;;;;10456847;27;93246;-64
2023/05/12 10:16:11;;;;;;;;;;;19.50;71.20;;;;;;10456745;27;94456;-64
2023/05/12 10:21:13;;;;;;;;;;;19.60;71.10;;;;;;10456463;27;93576;-65
2023/05/12 10:26:16;;;;;;;;;;;19.60;71.00;;;;;;10456857;27;91909;-65
2023/05/12 10:31:18;;;;;;;;;;;19.60;70.90;;;;;;10455923;27;93515;-65
2023/05/12 10:36:20;;;;;;;;;;;19.60;70.90;;;;;;10456522;27;94694;-65
2023/05/12 10:41:31;;;;;;;;;;;19.60;70.90;;;;;;10452929;27;95831;-65
2023/05/12 10:46:33;;;;;;;;;;;19.60;70.90;;;;;;10438511;27;93345;-65
2023/05/12 10:51:43;;;;;;;;;;;19.60;70.90;;;;;;10436875;27;94627;-65
2023/05/12 10:56:46;;;;;;;;;;;19.60;71.00;;;;;;10455656;27;94280;-66
2023/05/12 11:01:54;;;;;;;;;;;19.60;71.00;;;;;;10454850;27;93347;-66
2023/05/12 11:06:58;;;;;;;;;;;19.70;71.00;;;;;;10455814;27;94552;-65
2023/05/12 11:12:01;;;;;;;;;;;19.70;71.00;;;;;;10454835;27;93452;-65
2023/05/12 11:17:03;;;;;;;;;;;19.70;70.80;;;;;;10446866;27;96204;-65
2023/05/12 11:22:09;;;;;;;;;;;19.70;70.80;;;;;;10448410;27;93766;-66
2023/05/12 11:27:12;;;;;;;;;;;19.70;70.90;;;;;;10454309;27;94451;-66
2023/05/12 11:32:14;;;;;;;;;;;19.70;70.90;;;;;;10433098;27;95982;-66
2023/05/12 11:37:19;;;;;;;;;;;19.70;70.90;;;;;;10453529;27;93007;-65
2023/05/12 11:42:21;;;;;;;;;;;19.70;70.90;;;;;;10453899;27;93419;-65
2023/05/12 11:47:26;;;;;;;;;;;19.70;70.90;;;;;;10453414;27;94070;-65
2023/05/12 11:52:28;;;;;;;;;;;19.70;71.00;;;;;;10454096;27;92946;-65
2023/05/12 11:57:34;;;;;;;;;;;19.60;70.90;;;;;;10454708;27;94583;-65
2023/05/12 12:02:38;;;;;;;;;;;19.70;71.00;;;;;;10453428;27;93445;-64
2023/05/12 12:07:40;;;;;;;;;;;19.70;71.00;;;;;;10454557;27;93715;-65
2023/05/12 12:12:42;;;;;;;;;;;19.70;71.00;;;;;;10452425;27;93460;-64
2023/05/12 12:17:43;;;;;;;;;;;19.70;71.00;;;;;;10453536;27;94680;-65
2023/05/12 12:22:45;;;;;;;;;;;19.70;71.10;;;;;;10432246;27;96843;-64
2023/05/12 12:27:47;;;;;;;;;;;19.70;71.00;;;;;;10453122;27;93446;-64
2023/05/12 12:32:49;;;;;;;;;;;19.70;71.00;;;;;;10452296;27;94237;-65
2023/05/12 12:37:51;;;;;;;;;;;19.70;70.90;;;;;;10452536;27;93505;-65
2023/05/12 12:42:52;;;;;;;;;;;19.70;70.90;;;;;;10451432;27;93490;-65
2023/05/12 12:47:54;;;;;;;;;;;19.80;71.00;;;;;;10451817;27;93387;-64
2023/05/12 12:52:56;;;;;;;;;;;19.80;71.10;;;;;;10457933;27;93459;-65
2023/05/12 12:57:57;;;;;;;;;;;19.90;72.60;;;;;;10459139;27;92750;-65
2023/05/12 13:02:59;;;;;;;;;;;20.00;72.60;;;;;;10457878;27;93331;-66
2023/05/12 13:08:01;;;;;;;;;;;20.10;72.80;;;;;;10477475;27;94424;-65
2023/05/12 13:13:03;;;;;;;;;;;20.20;72.50;;;;;;10497800;27;95532;-65
2023/05/12 13:18:05;;;;;;;;;;;20.20;72.50;;;;;;10453349;27;94264;-65
2023/05/12 13:23:06;;;;;;;;;;;20.30;72.90;;;;;;10422301;27;93514;-65
2023/05/12 13:28:08;;;;;;;;;;;20.30;72.70;;;;;;10417471;27;93354;-65
2023/05/12 13:33:10;;;;;;;;;;;20.30;72.50;;;;;;10451631;27;93452;-65
2023/05/12 13:38:12;;;;;;;;;;;20.30;72.60;;;;;;10453964;27;94497;-65
2023/05/12 13:43:14;;;;;;;;;;;20.30;72.70;;;;;;10432206;27;94581;-65
2023/05/12 13:48:15;;;;;;;;;;;20.30;72.80;;;;;;10433320;27;93376;-65
2023/05/12 13:53:17;;;;;;;;;;;20.20;72.90;;;;;;10434482;27;93628;-64
2023/05/12 13:58:19;;;;;;;;;;;20.20;73.00;;;;;;10432279;27;93121;-65
2023/05/12 14:03:21;;;;;;;;;;;20.20;72.90;;;;;;10453497;27;96921;-66
2023/05/12 14:08:22;;;;;;;;;;;20.20;73.20;;;;;;10456532;27;93490;-65
2023/05/12 14:13:25;;;;;;;;;;;20.30;73.20;;;;;;10456858;27;94411;-65
2023/05/12 14:18:26;;;;;;;;;;;20.30;73.10;;;;;;10456404;27;94441;-65
2023/05/12 14:23:28;;;;;;;;;;;20.30;73.30;;;;;;10471520;27;93351;-65
2023/05/12 14:28:30;;;;;;;;;;;20.20;73.30;;;;;;10455543;27;94417;-65
2023/05/12 14:33:31;;;;;;;;;;;20.20;72.20;;;;;;10455239;27;93692;-65
2023/05/12 14:38:33;;;;;;;;;;;20.20;71.00;;;;;;10456297;27;93760;-65
2023/05/12 14:43:35;;;;;;;;;;;20.20;68.30;;;;;;10455361;27;94363;-65
2023/05/12 14:48:37;;;;;;;;;;;20.20;67.40;;;;;;10454433;27;92883;-66
2023/05/12 14:53:38;;;;;;;;;;;20.20;67.00;;;;;;10452087;27;96778;-65
2023/05/12 14:58:40;;;;;;;;;;;20.10;66.40;;;;;;10454512;27;93461;-65
2023/05/12 15:03:42;;;;;;;;;;;20.10;65.60;;;;;;10455120;27;94448;-66
2023/05/12 15:08:44;;;;;;;;;;;20.10;66.10;;;;;;10448502;27;94259;-65
2023/05/12 15:13:46;;;;;;;;;;;20.00;66.30;;;;;;10451381;27;94525;-65
2023/05/12 15:18:47;;;;;;;;;;;20.00;66.50;;;;;;10452054;27;93425;-66
2023/05/12 15:23:49;;;;;;;;;;;20.00;67.00;;;;;;10454094;27;93482;-65
2023/05/12 15:28:51;;;;;;;;;;;20.00;67.40;;;;;;10454223;27;92670;-66
2023/05/12 15:33:52;;;;;;;;;;;19.90;67.70;;;;;;10453710;27;94568;-63
2023/05/12 15:38:55;;;;;;;;;;;19.90;67.90;;;;;;10451607;27;93138;-64
2023/05/12 15:43:57;;;;;;;;;;;19.90;68.10;;;;;;10450271;27;97144;-64
2023/05/12 15:48:58;;;;;;;;;;;19.90;68.30;;;;;;10451378;27;94182;-64
2023/05/12 15:54:00;;;;;;;;;;;19.90;68.40;;;;;;10434561;27;94541;-64
2023/05/12 15:59:04;;;;;;;;;;;19.90;68.60;;;;;;10426590;27;94461;-64
2023/05/12 16:04:05;;;;;;;;;;;20.00;69.20;;;;;;10405803;27;93890;-66
2023/05/12 16:09:08;;;;;;;;;;;20.30;68.80;;;;;;10411059;28;93344;-65
2023/05/12 16:14:09;;;;;;;;;;;20.40;69.00;;;;;;10410790;28;93281;-65
2023/05/12 16:19:11;;;;;;;;;;;20.70;69.90;;;;;;10411313;28;93770;-66
2023/05/12 16:24:13;;;;;;;;;;;21.10;68.80;;;;;;10392689;27;93595;-65
2023/05/12 16:29:14;;;;;;;;;;;21.10;68.30;;;;;;10415925;28;94404;-66
2023/05/12 16:34:17;;;;;;;;;;;21.10;70.60;;;;;;10414997;28;96473;-66
2023/05/12 16:39:18;;;;;;;;;;;21.20;68.60;;;;;;10416788;28;92486;-66
2023/05/12 16:44:20;;;;;;;;;;;21.10;68.20;;;;;;10417811;28;93921;-66
2023/05/12 16:49:21;;;;;;;;;;;21.10;68.10;;;;;;10416358;28;94498;-65
2023/05/12 16:54:23;;;;;;;;;;;21.00;68.00;;;;;;10416725;28;93917;-63
2023/05/12 16:59:25;;;;;;;;;;;20.90;67.90;;;;;;10416954;28;94534;-64
2023/05/12 17:04:26;;;;;;;;;;;20.90;68.10;;;;;;10398120;28;93410;-64
2023/05/12 17:09:28;;;;;;;;;;;20.80;68.40;;;;;;10416670;28;92596;-65
2023/05/12 17:14:30;;;;;;;;;;;20.70;68.60;;;;;;10416862;28;94348;-65
2023/05/12 17:19:32;;;;;;;;;;;20.70;68.60;;;;;;10416323;28;94429;-65
2023/05/12 17:24:34;;;;;;;;;;;20.70;68.70;;;;;;10394588;28;95806;-65
2023/05/12 17:29:35;;;;;;;;;;;20.70;68.80;;;;;;10415594;28;93454;-65
2023/05/12 17:34:37;;;;;;;;;;;20.60;68.80;;;;;;10415010;28;94769;-65
2023/05/12 17:39:40;;;;;;;;;;;20.60;68.80;;;;;;10395863;28;94509;-65
2023/05/12 17:44:42;;;;;;;;;;;20.60;68.80;;;;;;10414993;28;93241;-65
2023/05/12 17:49:44;;;;;;;;;;;20.60;68.80;;;;;;10414887;28;93307;-65
2023/05/12 17:54:46;;;;;;;;;;;20.60;69.00;;;;;;10415108;28;94521;-66
2023/05/12 17:59:47;;;;;;;;;;;20.60;69.00;;;;;;10416124;28;93451;-66
2023/05/12 18:04:49;;;;;;;;;;;20.60;69.10;;;;;;10397307;28;94668;-66
2023/05/12 18:09:51;;;;;;;;;;;20.60;69.10;;;;;;10424096;27;93126;-65
2023/05/12 18:14:52;;;;;;;;;;;20.60;69.10;;;;;;10454266;27;96846;-66
2023/05/12 18:19:54;;;;;;;;;;;20.50;69.10;;;;;;10456155;27;93654;-64
2023/05/12 18:24:55;;;;;;;;;;;20.50;69.40;;;;;;10463493;27;94351;-65
2023/05/12 18:29:57;;;;;;;;;;;20.50;69.10;;;;;;10461366;27;93523;-67
2023/05/12 18:34:59;;;;;;;;;;;20.50;68.60;;;;;;10449933;27;93989;-67
2023/05/12 18:40:00;;;;;;;;;;;20.50;67.90;;;;;;10451423;27;92516;-66
2023/05/12 18:45:02;;;;;;;;;;;20.50;67.60;;;;;;10453915;27;93548;-66
2023/05/12 18:50:04;;;;;;;;;;;20.40;67.10;;;;;;10434335;27;92636;-66
2023/05/12 18:55:06;;;;;;;;;;;20.40;66.50;;;;;;10433661;27;93458;-65
2023/05/12 19:00:08;;;;;;;;;;;20.40;66.10;;;;;;10451119;27;94408;-65
2023/05/12 19:05:10;;;;;;;;;;;20.40;65.80;;;;;;10450384;27;95318;-65
2023/05/12 19:10:12;;;;;;;;;;;20.30;65.20;;;;;;10454375;27;94531;-65
2023/05/12 19:15:13;;;;;;;;;;;20.30;64.70;;;;;;10454009;27;93253;-65
2023/05/12 19:20:15;;;;;;;;;;;20.30;64.50;;;;;;10452946;27;94693;-65
2023/05/12 19:25:17;;;;;;;;;;;20.20;64.10;;;;;;10453319;27;93631;-65
2023/05/12 19:30:19;;;;;;;;;;;20.20;64.40;;;;;;10452985;27;93478;-64
2023/05/12 19:35:23;;;;;;;;;;;20.20;64.50;;;;;;10453132;27;114249;-65
2023/05/12 19:40:25;;;;;;;;;;;20.20;64.80;;;;;;10436347;27;92682;-65
2023/05/12 19:45:27;;;;;;;;;;;20.20;65.10;;;;;;10452094;27;94447;-65
2023/05/12 19:50:29;;;;;;;;;;;20.20;65.40;;;;;;10452025;27;93631;-65
2023/05/12 19:55:31;;;;;;;;;;;20.20;65.60;;;;;;10448703;27;96152;-65
2023/05/12 20:00:33;;;;;;;;;;;20.20;65.80;;;;;;10452063;27;93363;-66
2023/05/12 20:05:38;;;;;;;;;;;20.10;66.50;;;;;;10452685;27;94135;-65
2023/05/12 20:10:39;;;;;;;;;;;20.10;66.20;;;;;;10452130;27;93605;-66
2023/05/12 20:15:42;;;;;;;;;;;20.10;67.20;;;;;;10438397;27;94472;-66
2023/05/12 20:20:44;;;;;;;;;;;20.10;66.40;;;;;;10409649;28;94175;-66
2023/05/12 20:25:46;;;;;;;;;;;20.10;66.60;;;;;;10409456;28;93509;-67
2023/05/12 20:30:47;;;;;;;;;;;20.00;66.60;;;;;;10411529;28;93900;-67
2023/05/12 20:35:49;;;;;;;;;;;20.10;66.80;;;;;;10392601;28;94170;-67
2023/05/12 20:40:51;;;;;;;;;;;20.00;66.90;;;;;;10409023;28;93447;-65
2023/05/12 20:45:52;;;;;;;;;;;20.00;67.30;;;;;;10407279;28;96127;-66
2023/05/12 20:50:55;;;;;;;;;;;20.00;67.40;;;;;;10408311;27;94958;-65
2023/05/12 20:55:56;;;;;;;;;;;20.10;67.80;;;;;;10409096;28;93385;-66
2023/05/12 21:00:58;;;;;;;;;;;20.10;68.40;;;;;;10391260;28;92669;-66
2023/05/12 21:06:00;;;;;;;;;;;20.20;68.20;;;;;;10409674;28;93532;-65
2023/05/12 21:11:01;;;;;;;;;;;20.20;68.00;;;;;;10408465;27;93167;-63
2023/05/12 21:16:03;;;;;;;;;;;20.20;68.00;;;;;;10397703;28;93468;-64
2023/05/12 21:21:05;;;;;;;;;;;20.20;68.00;;;;;;10416138;28;92873;-65
2023/05/12 21:26:09;;;;;;;;;;;20.20;68.00;;;;;;10415483;28;94236;-65
2023/05/12 21:31:10;;;;;;;;;;;20.10;68.00;;;;;;10414502;28;93493;-65
2023/05/12 21:36:12;;;;;;;;;;;20.10;68.00;;;;;;10413397;28;95841;-65
2023/05/12 21:41:14;;;;;;;;;;;20.10;68.00;;;;;;10415332;28;94432;-65
2023/05/12 21:46:15;;;;;;;;;;;20.10;68.00;;;;;;10416062;28;93486;-65
2023/05/12 21:51:17;;;;;;;;;;;20.10;68.00;;;;;;10396067;28;93239;-65
2023/05/12 21:56:21;;;;;;;;;;;20.10;67.90;;;;;;10414202;28;93535;-65
2023/05/12 22:01:23;;;;;;;;;;;20.10;67.90;;;;;;10413218;28;93922;-65
2023/05/12 22:06:25;;;;;;;;;;;20.10;67.80;;;;;;10415565;28;94498;-65
2023/05/12 22:11:27;;;;;;;;;;;20.10;67.60;;;;;;10416051;28;92712;-65
2023/05/12 22:16:29;;;;;;;;;;;20.10;67.50;;;;;;10415456;28;93497;-64
2023/05/12 22:21:42;;;;;;;;;;;20.10;67.40;;;;;;10414335;28;94380;-65
2023/05/12 22:26:44;;;;;;;;;;;20.10;67.30;;;;;;10411487;28;96493;-65
2023/05/12 22:31:46;;;;;;;;;;;20.10;67.20;;;;;;10412878;28;93495;-65
2023/05/12 22:36:48;;;;;;;;;;;20.10;67.20;;;;;;10413933;28;94472;-65
2023/05/12 22:41:49;;;;;;;;;;;20.10;67.00;;;;;;10413818;28;94441;-65
2023/05/12 22:46:51;;;;;;;;;;;20.10;67.00;;;;;;10412268;28;93216;-65
2023/05/12 22:51:53;;;;;;;;;;;20.10;66.80;;;;;;10412925;28;94437;-65
2023/05/12 22:56:55;;;;;;;;;;;20.10;66.80;;;;;;10413194;28;94469;-65
2023/05/12 23:01:56;;;;;;;;;;;20.10;66.60;;;;;;10413249;28;93825;-65
2023/05/12 23:06:58;;;;;;;;;;;20.10;66.60;;;;;;10411982;28;93342;-65
2023/05/12 23:12:00;;;;;;;;;;;20.10;66.40;;;;;;10412884;28;94019;-65
2023/05/12 23:17:01;;;;;;;;;;;20.10;66.20;;;;;;10409586;28;96655;-65
2023/05/12 23:22:03;;;;;;;;;;;20.10;66.20;;;;;;10412335;28;93296;-65
2023/05/12 23:27:05;;;;;;;;;;;20.10;66.20;;;;;;10412465;28;93768;-65
2023/05/12 23:32:07;;;;;;;;;;;20.10;66.20;;;;;;10411184;28;93218;-65
2023/05/12 23:37:09;;;;;;;;;;;20.00;67.00;;;;;;10412081;28;93537;-65
2023/05/12 23:42:11;;;;;;;;;;;20.00;65.90;;;;;;10411893;28;93131;-65
2023/05/12 23:47:12;;;;;;;;;;;20.00;65.70;;;;;;10411762;28;94454;-65
2023/05/12 23:52:14;;;;;;;;;;;20.00;65.70;;;;;;10412751;28;93810;-65
2023/05/12 23:57:16;;;;;;;;;;;20.00;66.00;;;;;;10412162;28;94364;-65
